Time;durP1;ratioP1;P1;durP2;ratioP2;P2;SDS_P1;SDS_P2;PMS_P1;PMS_P2;Temp;Humidity;BMP_temperature;BMP_pressure;BME280_temperature;BME280_humidity;BME280_pressure;Samples;Min_cycle;Max_cycle;Signal;HPM_P1;HPM_P2
2023/01/04 00:00:02;;;;;;;1.65;0.60;;;15.60;73.60;;;;;;10362632;28;20026;-58
2023/01/04 00:05:03;;;;;;;1.83;0.70;;;15.60;73.50;;;;;;10337058;28;20015;-58
2023/01/04 00:10:05;;;;;;;1.38;0.90;;;15.70;73.40;;;;;;10378690;28;20056;-58
2023/01/04 00:15:06;;;;;;;1.92;0.77;;;15.70;73.40;;;;;;10365985;28;20026;-58
2023/01/04 00:20:07;;;;;;;1.42;0.60;;;15.70;73.30;;;;;;10365304;28;20029;-55
2023/01/04 00:25:08;;;;;;;3.90;0.60;;;15.70;73.30;;;;;;10358622;28;20465;-57
2023/01/04 00:30:09;;;;;;;2.75;0.70;;;15.70;73.40;;;;;;10342334;28;20041;-56
2023/01/04 00:35:10;;;;;;;2.28;0.90;;;15.60;73.30;;;;;;10360973;28;20030;-58
2023/01/04 00:40:11;;;;;;;0.98;0.68;;;15.70;73.30;;;;;;10380175;28;20022;-59
2023/01/04 00:45:12;;;;;;;1.67;0.68;;;15.70;73.30;;;;;;10384904;28;20053;-58
2023/01/04 00:50:13;;;;;;;2.42;0.70;;;15.70;73.30;;;;;;10373783;28;20030;-58
2023/01/04 00:55:14;;;;;;;2.17;0.90;;;15.70;73.30;;;;;;10355301;28;20740;-57
2023/01/04 01:00:15;;;;;;;1.13;0.45;;;15.70;73.40;;;;;;10340423;28;20025;-57
2023/01/04 01:05:16;;;;;;;1.23;0.52;;;15.60;73.40;;;;;;10384367;28;20034;-57
2023/01/04 01:10:16;;;;;;;0.80;0.40;;;15.60;73.40;;;;;;10384035;28;20444;-57
2023/01/04 01:15:17;;;;;;;1.40;0.73;;;15.60;73.40;;;;;;10379657;28;20027;-58
2023/01/04 01:20:18;;;;;;;2.17;0.80;;;15.60;73.40;;;;;;10369669;28;20081;-57
2023/01/04 01:25:18;;;;;;;2.22;0.77;;;15.60;73.50;;;;;;10324226;28;20485;-57
2023/01/04 01:30:19;;;;;;;1.00;0.50;;;15.60;73.50;;;;;;10356048;28;20113;-58
2023/01/04 01:35:20;;;;;;;1.35;0.57;;;15.60;73.50;;;;;;10343948;28;20026;-58
2023/01/04 01:40:20;;;;;;;1.13;0.45;;;15.60;73.50;;;;;;10366406;28;20113;-58
2023/01/04 01:45:32;;;;;;;1.15;0.50;;;15.50;73.40;;;;;;10382929;28;20144;-57
2023/01/04 01:50:55;;;;;;;0.40;0.40;;;15.60;73.50;;;;;;10358588;28;20478;-57
2023/01/04 01:55:56;;;;;;;1.40;0.60;;;15.60;73.40;;;;;;10352731;28;20385;-57
2023/01/04 02:00:58;;;;;;;1.48;0.63;;;15.60;73.30;;;;;;10382536;28;20030;-58
2023/01/04 02:06:01;;;;;;;1.30;0.60;;;15.60;73.20;;;;;;10353567;28;20026;-57
2023/01/04 02:11:03;;;;;;;1.23;0.50;;;15.60;73.80;;;;;;10366866;28;20061;-58
2023/01/04 02:16:40;;;;;;;2.50;0.80;;;15.60;73.20;;;;;;10381421;28;20050;-58
2023/01/04 02:22:24;;;;;;;1.73;0.50;;;15.60;73.20;;;;;;10366396;28;20040;-59
2023/01/04 02:27:48;;;;;;;1.90;0.60;;;15.60;73.00;;;;;;10365344;28;20021;-58
2023/01/04 02:33:23;;;;;;;1.27;0.50;;;15.60;73.10;;;;;;10365795;28;20703;-58
2023/01/04 02:38:34;;;;;;;0.73;0.50;;;15.60;73.10;;;;;;10347864;28;20022;-58
2023/01/04 02:54:52;;;;;;;0.87;0.50;;;15.60;73.30;;;;;;10337846;28;20026;-58
2023/01/04 03:00:10;;;;;;;1.42;0.60;;;15.50;73.30;;;;;;10346294;28;20068;-58
2023/01/04 03:06:14;;;;;;;1.00;0.77;;;15.60;73.30;;;;;;10365018;28;20024;-58
2023/01/04 03:16:33;;;;;;;1.42;0.60;;;15.50;73.30;;;;;;10377799;28;20639;-58
2023/01/04 03:21:36;;;;;;;0.90;0.40;;;15.60;73.40;;;;;;10379524;28;20092;-58
2023/01/04 03:37:41;;;;;;;2.78;0.70;;;15.70;72.90;;;;;;10363435;28;20378;-58
2023/01/04 03:48:42;;;;;;;1.75;0.47;;;15.70;72.90;;;;;;10364232;28;20037;-58
2023/01/04 03:53:58;;;;;;;1.20;0.30;;;15.70;73.00;;;;;;10354511;28;20134;-58
2023/01/04 03:58:59;;;;;;;0.98;0.47;;;15.70;73.10;;;;;;10371011;28;20030;-58
2023/01/04 04:09:18;;;;;;;0.73;0.47;;;15.70;73.00;;;;;;10371321;28;20050;-58
2023/01/04 04:14:19;;;;;;;1.13;0.43;;;15.70;72.80;;;;;;10369554;28;20458;-56
2023/01/04 04:19:20;;;;;;;0.80;0.40;;;15.80;72.60;;;;;;10369839;28;20064;-58
2023/01/04 04:24:24;;;;;;;0.80;0.32;;;15.70;72.80;;;;;;10359591;28;20019;-58
2023/01/04 04:29:25;;;;;;;0.90;0.40;;;15.70;73.00;;;;;;10360941;28;20402;-56
2023/01/04 04:34:25;;;;;;;0.47;0.35;;;15.60;73.10;;;;;;10357264;28;20022;-58
2023/01/04 04:39:26;;;;;;;0.50;0.40;;;15.60;73.20;;;;;;10385237;28;20034;-58
2023/01/04 04:44:26;;;;;;;0.95;0.30;;;15.60;73.20;;;;;;10384585;28;20192;-56
2023/01/04 04:49:27;;;;;;;0.60;0.30;;;15.60;73.30;;;;;;10364286;28;20126;-58
2023/01/04 04:54:28;;;;;;;0.57;0.30;;;15.60;73.30;;;;;;10376630;28;20380;-57
2023/01/04 04:59:28;;;;;;;0.65;0.30;;;15.60;73.40;;;;;;10384550;28;20055;-58
2023/01/04 05:04:29;;;;;;;0.50;0.30;;;15.60;73.30;;;;;;10384222;28;20432;-58
2023/01/04 05:09:30;;;;;;;1.65;0.47;;;15.60;73.40;;;;;;10366611;28;20434;-59
2023/01/04 05:14:30;;;;;;;0.60;0.40;;;15.60;73.50;;;;;;10355672;28;20046;-58
2023/01/04 05:19:31;;;;;;;0.90;0.30;;;15.60;73.60;;;;;;10368626;28;20030;-57
2023/01/04 05:24:32;;;;;;;0.93;0.40;;;15.60;73.50;;;;;;10366226;28;20531;-57
2023/01/04 05:34:51;;;;;;;0.70;0.28;;;15.50;73.60;;;;;;10367992;28;20037;-58
2023/01/04 05:39:52;;;;;;;1.02;0.30;;;15.50;73.50;;;;;;10376620;28;20026;-58
2023/01/04 05:44:55;;;;;;;0.50;0.30;;;15.50;73.30;;;;;;10349482;28;20371;-58
2023/01/04 05:49:55;;;;;;;0.95;0.30;;;15.50;73.30;;;;;;10356535;28;20064;-58
2023/01/04 05:54:56;;;;;;;0.75;0.35;;;15.60;73.30;;;;;;10378258;28;20835;-57
2023/01/04 05:59:56;;;;;;;0.30;0.28;;;15.60;73.20;;;;;;10364974;28;20030;-59
2023/01/04 06:04:59;;;;;;;0.90;0.30;;;15.70;73.20;;;;;;10366336;28;20114;-58
2023/01/04 06:09:59;;;;;;;6.75;0.63;;;15.70;73.10;;;;;;10372091;28;20501;-57
2023/01/04 06:15:00;;;;;;;2.00;0.60;;;15.70;73.10;;;;;;10351978;28;20026;-60
2023/01/04 06:20:03;;;;;;;6.13;1.13;;;15.80;72.90;;;;;;10378934;28;20026;-59
2023/01/04 06:25:04;;;;;;;5.82;0.80;;;16.00;73.70;;;;;;10353832;28;20541;-60
2023/01/04 06:30:06;;;;;;;1.63;0.43;;;16.10;74.00;;;;;;10344321;28;20038;-56
2023/01/04 06:35:07;;;;;;;2.75;0.55;;;16.20;74.00;;;;;;10362154;28;20014;-61
2023/01/04 06:40:08;;;;;;;1.90;0.50;;;16.10;74.00;;;;;;10377361;28;20032;-59
2023/01/04 06:45:10;;;;;;;3.33;0.55;;;16.10;73.00;;;;;;10360484;28;20073;-57
2023/01/04 06:50:11;;;;;;;12.13;1.38;;;16.00;73.30;;;;;;10353139;28;20042;-56
2023/01/04 06:55:12;;;;;;;4.55;1.10;;;15.90;74.10;;;;;;10372754;28;20070;-56
2023/01/04 07:00:14;;;;;;;13.88;1.27;;;15.90;74.50;;;;;;10361895;28;20050;-56
2023/01/04 07:05:14;;;;;;;12.20;2.10;;;15.90;75.30;;;;;;10359138;28;20022;-55
2023/01/04 07:10:15;;;;;;;16.15;1.30;;;15.90;74.80;;;;;;10328461;28;20473;-56
2023/01/04 07:15:16;;;;;;;5.15;1.00;;;15.90;75.00;;;;;;10347870;28;20109;-57
2023/01/04 07:20:17;;;;;;;10.65;1.30;;;15.90;74.80;;;;;;10310003;28;20026;-56
2023/01/04 07:25:17;;;;;;;19.02;2.03;;;15.90;75.00;;;;;;10308714;28;20426;-57
2023/01/04 07:30:20;;;;;;;16.50;1.23;;;15.90;75.20;;;;;;10365314;28;20663;-60
2023/01/04 07:35:22;;;;;;;8.57;1.70;;;15.90;75.20;;;;;;10371789;28;20025;-58
2023/01/04 07:40:22;;;;;;;7.95;1.58;;;15.90;75.30;;;;;;10379805;28;20025;-57
2023/01/04 07:45:24;;;;;;;15.93;1.75;;;15.80;75.50;;;;;;10378468;28;20077;-58
2023/01/04 07:50:25;;;;;;;13.05;2.63;;;15.80;75.60;;;;;;10370780;28;20026;-57
2023/01/04 07:55:25;;;;;;;11.85;1.65;;;15.80;75.50;;;;;;10381204;28;20190;-57
2023/01/04 08:00:26;;;;;;;7.45;1.20;;;15.90;75.50;;;;;;10334086;28;20105;-58
2023/01/04 08:05:27;;;;;;;13.95;1.80;;;15.80;75.70;;;;;;10378192;28;20065;-56
2023/01/04 08:10:28;;;;;;;12.73;2.28;;;15.80;75.80;;;;;;10377612;28;20034;-57
2023/01/04 08:15:28;;;;;;;16.67;1.80;;;15.80;75.90;;;;;;10382626;28;20038;-58
2023/01/04 08:20:29;;;;;;;14.65;1.52;;;15.80;75.40;;;;;;10367160;28;20038;-57
2023/01/04 08:25:30;;;;;;;10.65;1.13;;;15.80;75.40;;;;;;10352118;28;20505;-56
2023/01/04 08:30:30;;;;;;;16.27;2.30;;;15.70;75.30;;;;;;10327610;28;20434;-57
2023/01/04 08:35:31;;;;;;;14.30;1.85;;;15.70;75.40;;;;;;10368509;28;20077;-59
2023/01/04 08:40:32;;;;;;;13.63;2.97;;;15.80;75.50;;;;;;10379542;28;20108;-57
2023/01/04 08:45:32;;;;;;;6.80;1.05;;;15.70;75.30;;;;;;10375743;28;20129;-57
2023/01/04 08:50:33;;;;;;;5.15;1.98;;;15.80;75.50;;;;;;10356434;28;20723;-56
2023/01/04 08:55:34;;;;;;;6.32;0.73;;;15.80;75.50;;;;;;10356621;28;20045;-58
2023/01/04 09:00:34;;;;;;;11.43;1.92;;;15.80;75.50;;;;;;10367273;28;20026;-58
2023/01/04 09:05:35;;;;;;;10.50;2.17;;;15.70;75.40;;;;;;10384413;28;20046;-59
2023/01/04 09:10:37;;;;;;;6.57;1.20;;;15.70;75.70;;;;;;10384092;28;20382;-58
2023/01/04 09:15:38;;;;;;;9.52;1.23;;;15.70;75.30;;;;;;10374967;28;20042;-59
2023/01/04 09:20:39;;;;;;;8.32;1.10;;;15.80;75.80;;;;;;10376018;28;20109;-59
2023/01/04 09:25:40;;;;;;;18.52;2.92;;;15.80;74.80;;;;;;10366744;28;20430;-58
2023/01/04 09:30:40;;;;;;;12.82;3.80;;;15.90;78.80;;;;;;10376610;28;20061;-58
2023/01/04 09:35:41;;;;;;;7.13;2.10;;;16.00;77.20;;;;;;10368081;28;20042;-58
2023/01/04 09:41:01;;;;;;;10.55;2.00;;;15.90;76.00;;;;;;10351811;28;20546;-59
2023/01/04 09:46:08;;;;;;;19.83;2.75;;;15.80;76.10;;;;;;10379677;28;20077;-58
2023/01/04 09:51:18;;;;;;;21.52;4.28;;;15.70;76.80;;;;;;10354408;28;20029;-59
2023/01/04 09:56:31;;;;;;;21.67;2.85;;;15.70;77.00;;;;;;10379514;28;20029;-59
2023/01/04 10:01:47;;;;;;;22.00;4.18;;;15.80;77.10;;;;;;10365653;28;20018;-58
2023/01/04 10:06:48;;;;;;;17.13;2.45;;;15.80;77.10;;;;;;10379085;28;20034;-57
2023/01/04 10:12:20;;;;;;;17.40;2.88;;;15.70;77.10;;;;;;10362661;28;20087;-59
2023/01/04 10:17:41;;;;;;;12.45;2.08;;;15.80;77.10;;;;;;10362070;28;20046;-58
2023/01/04 10:22:59;;;;;;;24.58;3.00;;;15.80;77.00;;;;;;10326383;28;20042;-57
2023/01/04 10:28:42;;;;;;;15.38;2.35;;;15.70;77.10;;;;;;10337797;28;20539;-57
2023/01/04 10:33:53;;;;;;;14.88;2.15;;;15.70;77.70;;;;;;10350188;28;20025;-57
2023/01/04 10:39:03;;;;;;;15.77;3.55;;;15.70;77.30;;;;;;10364764;28;20112;-59
2023/01/04 10:44:16;;;;;;;10.82;2.03;;;15.70;77.20;;;;;;10370595;28;20109;-59
2023/01/04 10:49:41;;;;;;;13.23;2.08;;;15.70;77.10;;;;;;10375951;28;20519;-56
2023/01/04 10:54:58;;;;;;;11.68;2.53;;;15.80;77.20;;;;;;10351298;28;20037;-59
2023/01/04 11:00:05;;;;;;;9.65;1.95;;;15.80;77.10;;;;;;10322212;28;20031;-57
2023/01/04 11:05:20;;;;;;;12.32;1.88;;;15.70;77.00;;;;;;10329264;28;20029;-58
2023/01/04 11:10:46;;;;;;;12.65;1.98;;;15.80;77.00;;;;;;10360714;28;20576;-59
2023/01/04 11:15:46;;;;;;;17.33;3.75;;;15.80;76.80;;;;;;10376676;28;20030;-55
2023/01/04 11:20:47;;;;;;;11.30;2.25;;;15.70;76.60;;;;;;10365299;28;20709;-58
2023/01/04 11:26:30;;;;;;;9.68;1.60;;;15.80;76.80;;;;;;10360454;28;20105;-58
2023/01/04 11:31:55;;;;;;;9.50;1.63;;;15.90;76.80;;;;;;10333990;28;20057;-57
2023/01/04 11:36:56;;;;;;;10.05;1.73;;;15.90;77.70;;;;;;10363132;28;20030;-61
2023/01/04 11:42:04;;;;;;;8.05;1.58;;;15.90;77.60;;;;;;10364566;28;20403;-61
2023/01/04 11:47:19;;;;;;;13.83;2.63;;;15.90;76.30;;;;;;10365219;28;20046;-62
2023/01/04 11:52:36;;;;;;;14.82;2.42;;;15.80;76.60;;;;;;10354192;28;20026;-62
2023/01/04 11:57:37;;;;;;;22.15;3.05;;;15.80;77.20;;;;;;10333728;28;20036;-61
2023/01/04 12:02:37;;;;;;;28.50;3.40;;;15.80;77.20;;;;;;10356654;28;20028;-62
2023/01/04 12:07:40;;;;;;;51.78;5.07;;;15.80;77.40;;;;;;10360268;28;20138;-61
2023/01/04 12:12:40;;;;;;;23.38;3.35;;;15.80;77.40;;;;;;10366830;28;20113;-60
2023/01/04 12:18:16;;;;;;;37.45;5.22;;;15.80;77.40;;;;;;10357164;28;20022;-60
2023/01/04 12:23:17;;;;;;;21.33;4.03;;;15.90;77.30;;;;;;10341987;28;20113;-60
2023/01/04 12:28:41;;;;;;;25.98;3.92;;;15.90;77.10;;;;;;10353890;28;20065;-57
2023/01/04 12:33:41;;;;;;;30.38;3.60;;;16.00;76.30;;;;;;10348087;28;20018;-58
2023/01/04 12:38:54;;;;;;;23.95;3.00;;;16.00;76.80;;;;;;10358123;28;20014;-57
2023/01/04 12:43:55;;;;;;;13.57;4.13;;;15.90;76.70;;;;;;10332328;28;20470;-58
2023/01/04 12:49:04;;;;;;;15.57;2.45;;;15.90;76.90;;;;;;10370427;28;20129;-58
2023/01/04 12:54:21;;;;;;;14.25;1.92;;;15.90;77.00;;;;;;10334096;28;20029;-58
2023/01/04 12:59:34;;;;;;;17.98;2.83;;;15.90;77.00;;;;;;10337802;28;20037;-57
2023/01/04 13:04:40;;;;;;;11.82;2.33;;;15.90;77.20;;;;;;10333822;28;20023;-58
2023/01/04 13:09:56;;;;;;;16.85;2.38;;;15.90;77.40;;;;;;10336956;28;20295;-58
2023/01/04 13:15:04;;;;;;;16.30;2.97;;;15.90;77.10;;;;;;10358849;28;20034;-59
2023/01/04 13:20:20;;;;;;;13.07;2.25;;;15.90;77.30;;;;;;10368347;28;20022;-60
2023/01/04 13:25:23;;;;;;;15.82;3.00;;;15.90;77.30;;;;;;10360572;28;20034;-59
2023/01/04 13:30:29;;;;;;;18.17;3.20;;;15.90;77.40;;;;;;10349491;28;20434;-58
2023/01/04 13:35:30;;;;;;;17.50;2.95;;;15.90;77.90;;;;;;10337585;28;20588;-57
2023/01/04 13:40:36;;;;;;;9.52;1.92;;;15.90;77.30;;;;;;10330310;28;20301;-58
2023/01/04 13:45:42;;;;;;;25.08;3.60;;;16.00;77.10;;;;;;10331849;28;20109;-59
2023/01/04 13:50:57;;;;;;;14.77;3.00;;;16.00;77.10;;;;;;10345027;28;20717;-57
2023/01/04 13:56:01;;;;;;;11.73;1.95;;;16.00;77.10;;;;;;10349896;28;20029;-59
2023/01/04 14:01:12;;;;;;;16.70;3.28;;;15.90;77.20;;;;;;10354769;28;20061;-58
2023/01/04 14:06:39;;;;;;;18.42;3.00;;;15.90;77.10;;;;;;10344524;28;20026;-58
2023/01/04 14:12:02;;;;;;;16.05;2.88;;;15.90;77.20;;;;;;10326147;28;20078;-58
2023/01/04 14:17:14;;;;;;;24.40;3.08;;;15.90;77.10;;;;;;10346659;28;20432;-57
2023/01/04 14:22:25;;;;;;;13.77;2.97;;;15.90;77.30;;;;;;10336326;28;20014;-59
2023/01/04 14:27:44;;;;;;;23.13;2.70;;;16.00;77.20;;;;;;10329228;28;20027;-61
2023/01/04 14:33:19;;;;;;;22.17;2.63;;;15.90;77.10;;;;;;10340528;28;20034;-61
2023/01/04 14:38:19;;;;;;;25.85;3.75;;;16.00;77.30;;;;;;10355562;28;20104;-60
2023/01/04 14:43:49;;;;;;;18.52;3.40;;;16.00;77.50;;;;;;10361640;28;20067;-60
2023/01/04 14:48:50;;;;;;;23.33;4.10;;;16.00;77.30;;;;;;10344460;28;20517;-61
2023/01/04 14:53:50;;;;;;;18.17;5.00;;;16.00;77.40;;;;;;10341720;28;20105;-60
2023/01/04 14:58:51;;;;;;;20.35;3.83;;;16.00;77.20;;;;;;10368117;28;20030;-60
2023/01/04 15:03:52;;;;;;;14.77;3.10;;;16.00;77.30;;;;;;10353992;28;20148;-59
2023/01/04 15:08:52;;;;;;;18.70;4.18;;;16.00;77.20;;;;;;10328193;28;20033;-60
2023/01/04 15:13:53;;;;;;;28.27;3.80;;;16.00;77.30;;;;;;10349675;28;20055;-62
2023/01/04 15:18:54;;;;;;;16.73;3.20;;;16.00;77.40;;;;;;10344339;28;20038;-60
2023/01/04 15:23:54;;;;;;;22.40;3.92;;;16.00;77.40;;;;;;10327852;28;20089;-58
2023/01/04 15:28:55;;;;;;;22.08;5.40;;;16.00;77.40;;;;;;10361444;28;20482;-61
2023/01/04 15:33:58;;;;;;;21.23;4.18;;;16.00;77.20;;;;;;10360338;28;20018;-61
2023/01/04 15:38:58;;;;;;;29.77;3.50;;;16.00;77.30;;;;;;10360223;28;20214;-59
2023/01/04 15:43:59;;;;;;;14.82;4.25;;;15.90;77.40;;;;;;10361596;28;20407;-61
2023/01/04 15:49:00;;;;;;;15.27;2.65;;;16.00;77.20;;;;;;10363966;28;20054;-61
2023/01/04 15:54:00;;;;;;;20.75;3.30;;;15.90;77.10;;;;;;10362502;28;20489;-60
2023/01/04 15:59:01;;;;;;;17.23;2.95;;;16.00;76.90;;;;;;10359546;28;20052;-61
2023/01/04 16:04:05;;;;;;;11.50;3.25;;;15.90;76.70;;;;;;10362789;28;20565;-60
2023/01/04 16:09:07;;;;;;;15.57;4.88;;;15.80;76.20;;;;;;10334819;28;20025;-62
2023/01/04 16:14:08;;;;;;;15.32;4.70;;;15.80;75.80;;;;;;10343887;28;20595;-59
2023/01/04 16:19:08;;;;;;;15.70;2.90;;;15.80;75.30;;;;;;10366214;28;20030;-62
2023/01/04 16:24:09;;;;;;;11.30;3.42;;;15.80;74.90;;;;;;10347249;28;20109;-61
2023/01/04 16:29:12;;;;;;;9.77;2.58;;;15.80;74.40;;;;;;10369319;28;20037;-61
2023/01/04 16:34:13;;;;;;;11.77;3.08;;;15.70;74.60;;;;;;10369102;28;20064;-63
2023/01/04 16:39:14;;;;;;;23.65;4.85;;;15.80;74.40;;;;;;10347127;28;20046;-60
2023/01/04 16:44:15;;;;;;;10.80;4.38;;;16.00;78.30;;;;;;10344098;28;20497;-59
2023/01/04 16:49:17;;;;;;;11.98;3.45;;;16.20;78.20;;;;;;10343789;28;20041;-59
2023/01/04 16:54:18;;;;;;;13.23;4.00;;;16.30;78.30;;;;;;10331826;28;20014;-58
2023/01/04 16:59:19;;;;;;;5.90;2.22;;;16.20;78.30;;;;;;10340340;28;20042;-62
2023/01/04 17:04:20;;;;;;;18.83;3.90;;;16.20;77.20;;;;;;10321868;28;20411;-59
2023/01/04 17:09:21;;;;;;;11.57;3.05;;;16.20;77.50;;;;;;10322706;28;20030;-59
2023/01/04 17:14:28;;;;;;;23.92;4.05;;;16.30;77.50;;;;;;10322822;28;20013;-60
2023/01/04 17:19:29;;;;;;;11.32;3.30;;;16.30;77.50;;;;;;10326957;28;20021;-59
2023/01/04 17:24:29;;;;;;;9.85;2.90;;;16.30;76.70;;;;;;10322255;28;20047;-58
2023/01/04 17:29:30;;;;;;;16.73;3.60;;;16.20;76.30;;;;;;10338813;28;20117;-58
2023/01/04 17:34:31;;;;;;;24.92;4.28;;;16.10;76.20;;;;;;10326842;28;20789;-59
2023/01/04 17:39:31;;;;;;;21.90;4.90;;;16.00;76.80;;;;;;10356532;28;20124;-60
2023/01/04 17:44:32;;;;;;;12.10;3.47;;;16.00;76.90;;;;;;10364958;28;20109;-59
2023/01/04 17:49:33;;;;;;;24.20;3.88;;;16.00;76.70;;;;;;10348699;28;20046;-58
2023/01/04 17:54:33;;;;;;;16.90;3.20;;;16.20;77.30;;;;;;10343638;28;20046;-58
2023/01/04 17:59:34;;;;;;;16.40;3.50;;;16.30;77.90;;;;;;10359226;28;20037;-59
2023/01/04 18:04:35;;;;;;;16.52;3.10;;;16.30;76.50;;;;;;10335185;28;20079;-58
2023/01/04 18:09:35;;;;;;;24.13;3.90;;;16.20;76.90;;;;;;10369652;28;20128;-57
2023/01/04 18:14:36;;;;;;;19.67;2.90;;;16.20;77.20;;;;;;10361269;28;20108;-61
2023/01/04 18:19:37;;;;;;;25.05;3.78;;;16.10;76.80;;;;;;10364961;28;20105;-58
2023/01/04 18:24:37;;;;;;;16.05;3.97;;;16.10;76.80;;;;;;10364050;28;20501;-59
2023/01/04 18:29:38;;;;;;;27.30;3.75;;;16.00;77.10;;;;;;10350429;28;20083;-59
2023/01/04 18:34:39;;;;;;;12.70;2.35;;;16.00;76.90;;;;;;10364285;28;20032;-59
2023/01/04 18:39:40;;;;;;;9.52;3.58;;;16.00;76.90;;;;;;10370313;28;20085;-59
2023/01/04 18:44:41;;;;;;;10.13;3.40;;;16.00;76.80;;;;;;10382994;28;20026;-60
2023/01/04 18:49:42;;;;;;;12.52;3.00;;;16.00;76.70;;;;;;10376910;28;20433;-59
2023/01/04 18:54:43;;;;;;;9.75;2.95;;;16.00;76.60;;;;;;10381129;28;20522;-57
2023/01/04 18:59:48;;;;;;;9.73;3.13;;;16.00;76.50;;;;;;10371104;28;20014;-59
2023/01/04 19:04:49;;;;;;;16.98;3.97;;;16.00;76.80;;;;;;10376001;28;20021;-58
2023/01/04 19:09:49;;;;;;;13.98;3.25;;;16.00;76.70;;;;;;10380878;28;20022;-58
2023/01/04 19:14:50;;;;;;;9.40;2.85;;;16.10;76.90;;;;;;10382802;28;20382;-57
2023/01/04 19:19:51;;;;;;;12.95;3.47;;;16.10;76.90;;;;;;10380966;28;20544;-60
2023/01/04 19:24:52;;;;;;;9.90;2.83;;;16.00;76.70;;;;;;10381368;28;20097;-59
2023/01/04 19:29:52;;;;;;;12.68;3.53;;;16.00;76.60;;;;;;10379764;28;20069;-59
2023/01/04 19:34:53;;;;;;;13.40;4.55;;;16.00;76.70;;;;;;10386014;28;20014;-57
2023/01/04 19:39:54;;;;;;;11.25;5.15;;;16.00;77.80;;;;;;10374055;28;20181;-59
2023/01/04 19:44:54;;;;;;;14.90;3.65;;;16.10;77.40;;;;;;10372749;28;20120;-58
2023/01/04 19:49:55;;;;;;;11.18;3.55;;;16.20;77.90;;;;;;10377767;28;20065;-57
2023/01/04 19:54:56;;;;;;;7.65;3.75;;;16.20;78.00;;;;;;10391276;28;20021;-58
2023/01/04 19:59:56;;;;;;;9.02;3.38;;;16.10;76.50;;;;;;10399848;28;20860;-54
2023/01/04 20:04:57;;;;;;;12.13;4.72;;;15.90;76.80;;;;;;10373769;28;20516;-55
2023/01/04 20:09:58;;;;;;;6.47;3.20;;;15.90;77.20;;;;;;10394121;28;20493;-55
2023/01/04 20:14:58;;;;;;;7.63;3.55;;;15.90;77.10;;;;;;10400169;28;20056;-54
2023/01/04 20:19:59;;;;;;;8.52;3.22;;;15.80;77.10;;;;;;10396240;28;20105;-55
2023/01/04 20:25:00;;;;;;;8.25;3.88;;;15.80;77.00;;;;;;10390731;28;20124;-54
2023/01/04 20:30:00;;;;;;;8.73;4.03;;;15.80;77.00;;;;;;10374480;28;20117;-57
2023/01/04 20:35:02;;;;;;;7.32;3.50;;;15.80;77.00;;;;;;10381991;28;20101;-56
2023/01/04 20:40:03;;;;;;;8.50;2.85;;;15.80;77.00;;;;;;10378649;28;20041;-57
2023/01/04 20:45:05;;;;;;;8.68;3.45;;;15.80;77.00;;;;;;10371480;28;20053;-57
2023/01/04 20:50:08;;;;;;;7.68;3.63;;;15.80;77.00;;;;;;10383185;28;20038;-57
2023/01/04 20:55:09;;;;;;;8.55;2.97;;;15.80;77.10;;;;;;10367203;28;20033;-56
2023/01/04 21:00:10;;;;;;;7.00;2.35;;;15.70;76.90;;;;;;10368304;28;20034;-56
2023/01/04 21:05:11;;;;;;;7.05;2.50;;;15.70;76.90;;;;;;10387479;28;20029;-56
2023/01/04 21:10:11;;;;;;;8.30;3.17;;;15.70;76.80;;;;;;10366663;28;20061;-57
2023/01/04 21:15:12;;;;;;;8.55;4.30;;;15.70;76.80;;;;;;10369118;28;20053;-56
2023/01/04 21:20:13;;;;;;;5.55;2.88;;;15.70;77.40;;;;;;10369142;28;20045;-56
2023/01/04 21:25:14;;;;;;;7.63;2.35;;;15.70;76.80;;;;;;10382002;28;20385;-56
2023/01/04 21:30:15;;;;;;;9.20;2.72;;;15.70;76.80;;;;;;10367469;28;20087;-56
2023/01/04 21:35:15;;;;;;;6.57;2.28;;;15.70;76.80;;;;;;10368467;28;20101;-56
2023/01/04 21:40:16;;;;;;;6.75;2.67;;;15.70;76.70;;;;;;10350190;28;20058;-55
2023/01/04 21:45:17;;;;;;;4.38;2.67;;;15.70;76.70;;;;;;10369680;28;20038;-55
2023/01/04 21:50:18;;;;;;;7.43;2.78;;;15.70;76.70;;;;;;10354380;28;20033;-55
2023/01/04 21:55:19;;;;;;;6.88;2.72;;;15.60;76.70;;;;;;10367136;28;20018;-54
2023/01/04 22:00:19;;;;;;;8.25;3.28;;;15.60;76.70;;;;;;10394501;28;20108;-53
2023/01/04 22:05:20;;;;;;;6.93;2.60;;;15.60;76.60;;;;;;10387357;28;20451;-54
2023/01/04 22:10:21;;;;;;;5.82;2.47;;;15.70;76.70;;;;;;10383297;28;20117;-55
2023/01/04 22:15:21;;;;;;;6.65;2.78;;;15.70;76.50;;;;;;10356443;28;20715;-55
2023/01/04 22:20:22;;;;;;;5.60;2.38;;;15.60;76.40;;;;;;10394374;28;20104;-55
2023/01/04 22:25:23;;;;;;;6.93;2.90;;;15.60;76.40;;;;;;10368428;28;20109;-56
2023/01/04 22:30:23;;;;;;;5.88;2.17;;;15.60;76.40;;;;;;10364997;28;20061;-56
2023/01/04 22:35:24;;;;;;;6.38;2.38;;;15.70;76.40;;;;;;10364709;28;20029;-56
2023/01/04 22:40:25;;;;;;;6.35;2.47;;;15.70;76.40;;;;;;10323812;28;20058;-56
2023/01/04 22:45:25;;;;;;;8.00;2.50;;;15.70;76.40;;;;;;10339777;28;20604;-56
2023/01/04 22:50:26;;;;;;;6.82;2.20;;;15.60;76.30;;;;;;10342324;28;20077;-57
2023/01/04 22:55:27;;;;;;;5.95;2.50;;;15.70;76.30;;;;;;10324712;28;20106;-55
2023/01/04 23:00:27;;;;;;;5.50;2.67;;;15.70;76.30;;;;;;10339961;28;20548;-56
2023/01/04 23:05:28;;;;;;;5.88;2.13;;;15.70;76.30;;;;;;10323499;28;20057;-56
2023/01/04 23:10:29;;;;;;;5.88;3.00;;;15.70;76.30;;;;;;10324516;28;20048;-57
2023/01/04 23:15:30;;;;;;;6.43;2.40;;;15.60;76.30;;;;;;10306826;28;20137;-56
2023/01/04 23:20:31;;;;;;;8.43;2.42;;;15.70;76.30;;;;;;10324353;28;20054;-57
2023/01/04 23:25:33;;;;;;;7.07;2.22;;;15.70;76.30;;;;;;10340112;28;20173;-56
2023/01/04 23:30:34;;;;;;;8.65;3.08;;;15.70;76.30;;;;;;10361960;28;20041;-57
2023/01/04 23:35:34;;;;;;;6.63;2.55;;;15.70;76.20;;;;;;10334387;28;20032;-57
2023/01/04 23:40:35;;;;;;;8.25;1.98;;;15.70;76.20;;;;;;10322481;28;20042;-55
2023/01/04 23:45:37;;;;;;;5.57;2.70;;;15.70;76.20;;;;;;10345125;28;20041;-57
2023/01/04 23:50:38;;;;;;;6.82;2.95;;;15.60;76.10;;;;;;10323834;28;20572;-57
2023/01/04 23:55:38;;;;;;;4.07;2.28;;;15.70;76.20;;;;;;10323491;28;20101;-56
